Oxnard, CA

6:16 PM PDT on September 30, 2014 (GMT -0700)
Point Mugu Naval Air Station | Change Station
CLOSE
Current Station
Airport
Location: Point Mugu,
Elevation: 13 ft
Nearby Weather Stations
Active Advisory: Special Statement

Elev 13 ft 34.12 °N, 119.12 °W | Updated 20 minutes ago

Clear
Clear
72 °F
Feels Like 72 °F
N
10
Wind Variable Wind from West

Today
High -- | Low -- °F
--% Chance of Precip.
Yesterday
High -- | Low -- °F
Precip. -- in
6:50 AM 6:41 PM
Waxing Crescent, 42% visible
Pressure 29.77 in
Visibility 10.0 miles
Clouds Clear
Dew Point 62 °F
Humidity 71%
Rainfall 0.00 in
Snow Depth 0 in , 0 in , 0 in
UV 0 out of 12
Pollen 5.60 out of 12
Ozone Good
PM2.5 Good
Flu Activity Not available.
METAR KNTD 010056Z 28009KT 10SM CLR 22/17 A2977 RMK AO2 SLP081 T02220167 $

More Conditions Fewer Conditions

Pressure 29.77 in
Visibility 10.0 miles
Clouds Clear
Dew Point 62 °F
Humidity 71%
Rainfall 0.00 in
Snow Depth 0 in , 0 in , 0 in
UV 0 out of 12
Pollen 5.60 out of 12
Ozone Good
PM2.5 Good
Flu Activity Not available.
METAR KNTD 010056Z 28009KT 10SM CLR 22/17 A2977 RMK AO2 SLP081 T02220167 $

More Conditions Fewer Conditions

10-Day Weather Forecast

Almanac

Astronomy

Sep. 30, 2014 Rise Set
Actual Time 6:50 AM PDT 6:41 PM PDT
Civil Twilight 6:25 AM PDT 7:06 PM PDT
Nautical Twilight 5:56 AM PDT 7:35 PM PDT
Astronomical Twilight 5:27 AM PDT 8:05 PM PDT
Moon 12:51 PM PDT (9/30) 11:28 PM PDT (9/30)
Length of Visible Light 12h 41m
Length of Day
11h 51m
Tomorrow will be 2m 6s shorter.
Waxing Crescent, 42% of the Moon is Illuminated
Today
Waxing Crescent
Oct 1
First Quarter
Oct 8
Full
Oct 15
Last Quarter
Oct 23
New

Today's Extremes

State Highs State Lows

Community

WunderPhotos

Upload Photos

1,757,815 photos uploaded!

Nearby

Air Quality

  Air Quality AQ Index Pollutant
Yesterday Good
PM2.5
Yesterday Good
OZONE
Current Good
PM2.5
Current Good
OZONE
Tuesday Good
OZONE
Tuesday Good
PM2.5
Wednesday Good
OZONE
Wednesday Good
PM2.5

Snow Depth

Station Depth Elevation
Burnside Lake 0 in 8139 ft
Blue Lakes 0 in 8000 ft
Tahoe City Cross 0 in 6750 ft
Rubicon #2 0 in 7500 ft
Hagan's Meadow 0 in 8000 ft

Earthquake Activity

City Distance Mag. Time & Date
Shandon, California 134 miles 2.9 5:34 PM PDT
2014-09-30
Avalon, California 84 miles 2.6 1:28 PM PDT
2014-09-30
Minimum magnitude displayed is 2.5.

Coastal Water Temperatures

Place Temperature
Santa Monica Pier 72.0 °F
Los Angeles, CA 68.0 °F
Port San Luis, CA 57.0 °F

Nearby Weather Stations